createdAt,value
2023-05-06T00:01:19.534Z,50.79
2023-05-06T00:03:46.694Z,50.86
2023-05-06T00:06:13.742Z,51.07
2023-05-06T00:08:40.590Z,51.11
2023-05-06T00:11:07.426Z,51.10
2023-05-06T00:13:34.244Z,51.24
2023-05-06T00:16:01.113Z,51.26
2023-05-06T00:18:27.976Z,51.43
2023-05-06T00:20:54.865Z,51.35
2023-05-06T00:23:21.785Z,51.33
2023-05-06T00:25:48.574Z,51.36
2023-05-06T00:28:15.422Z,51.43
2023-05-06T00:30:42.210Z,51.32
2023-05-06T00:33:09.018Z,51.28
2023-05-06T00:35:35.909Z,51.39
2023-05-06T00:38:15.336Z,51.41
2023-05-06T00:40:42.944Z,51.46
2023-05-06T00:43:09.942Z,51.30
2023-05-06T00:45:37.153Z,51.43
2023-05-06T00:48:06.644Z,51.56
2023-05-06T00:50:34.808Z,51.46
2023-05-06T00:53:04.305Z,51.51
2023-05-06T00:55:31.788Z,51.65
2023-05-06T00:57:59.023Z,51.50
2023-05-06T01:00:28.272Z,51.44
2023-05-06T01:02:55.253Z,51.40
2023-05-06T01:05:26.265Z,51.55
2023-05-06T01:08:10.537Z,51.67
2023-05-06T01:10:53.885Z,51.54
2023-05-06T01:13:30.559Z,51.60
2023-05-06T01:16:00.708Z,51.51
2023-05-06T01:18:32.557Z,51.56
2023-05-06T01:21:01.794Z,51.70
2023-05-06T01:23:29.047Z,51.56
2023-05-06T01:25:55.989Z,51.35
2023-05-06T01:28:22.842Z,51.56
2023-05-06T01:30:52.587Z,51.64
2023-05-06T01:33:25.919Z,51.52
2023-05-06T01:36:12.491Z,51.39
2023-05-06T01:38:59.841Z,51.51
2023-05-06T01:41:27.997Z,51.35
2023-05-06T01:43:56.725Z,51.47
2023-05-06T01:46:25.262Z,51.35
2023-05-06T01:48:55.185Z,51.49
2023-05-06T01:51:23.628Z,51.63
2023-05-06T01:53:50.540Z,51.54
2023-05-06T01:56:17.838Z,51.68
2023-05-06T01:58:44.641Z,51.63
2023-05-06T02:01:11.532Z,51.62
2023-05-06T02:03:40.365Z,51.70
2023-05-06T02:06:07.898Z,51.56
2023-05-06T02:08:39.048Z,51.31
2023-05-06T02:11:06.573Z,51.27
2023-05-06T02:13:33.617Z,51.46
2023-05-06T02:16:01.085Z,51.47
2023-05-06T02:18:28.611Z,51.54
2023-05-06T02:20:56.258Z,51.39
2023-05-06T02:23:23.047Z,51.43
2023-05-06T02:25:50.196Z,51.38
2023-05-06T02:28:17.055Z,51.42
2023-05-06T02:30:44.005Z,51.37
2023-05-06T02:33:11.014Z,51.27
2023-05-06T02:35:38.030Z,51.23
2023-05-06T02:38:04.845Z,51.25
2023-05-06T02:40:31.655Z,51.32
2023-05-06T02:42:58.828Z,51.37
2023-05-06T02:45:25.718Z,51.43
2023-05-06T02:47:53.002Z,51.27
2023-05-06T02:50:19.897Z,51.18
2023-05-06T02:52:46.766Z,51.29
2023-05-06T02:55:13.593Z,51.25
2023-05-06T02:57:40.472Z,51.41
2023-05-06T03:00:11.119Z,51.45
2023-05-06T03:02:38.006Z,51.56
2023-05-06T03:05:05.626Z,51.68
2023-05-06T03:07:32.782Z,51.53
2023-05-06T03:09:59.740Z,51.42
2023-05-06T03:12:26.767Z,51.55
2023-05-06T03:14:53.709Z,51.63
2023-05-06T03:17:21.639Z,51.55
2023-05-06T03:19:50.489Z,51.49
2023-05-06T03:22:17.870Z,51.58
2023-05-06T03:24:46.498Z,51.63
2023-05-06T03:27:13.680Z,51.46
2023-05-06T03:29:41.804Z,51.63
2023-05-06T03:32:10.641Z,51.48
2023-05-06T03:34:42.167Z,51.63
2023-05-06T03:37:12.782Z,51.86
2023-05-06T03:39:45.477Z,51.88
2023-05-06T03:42:12.574Z,51.66
2023-05-06T03:44:39.532Z,51.54
2023-05-06T03:47:07.081Z,51.66
2023-05-06T03:49:34.856Z,51.57
2023-05-06T03:52:05.711Z,51.38
2023-05-06T03:54:32.918Z,51.53
2023-05-06T03:57:03.356Z,51.42
2023-05-06T03:59:31.785Z,51.33
2023-05-06T04:02:00.150Z,51.26
2023-05-06T04:04:28.339Z,51.29
2023-05-06T04:06:56.353Z,51.21
2023-05-06T04:09:24.557Z,51.24
2023-05-06T04:11:52.648Z,51.37
2023-05-06T04:14:19.746Z,51.47
2023-05-06T04:16:46.926Z,51.61
2023-05-06T04:19:14.263Z,51.79
2023-05-06T04:21:41.108Z,51.69
2023-05-06T04:24:11.634Z,51.66
2023-05-06T04:26:39.871Z,52.00
2023-05-06T04:29:07.896Z,51.87
2023-05-06T04:31:40.612Z,51.64
2023-05-06T04:34:11.114Z,51.60
2023-05-06T04:36:40.067Z,51.54
2023-05-06T04:39:14.526Z,51.70
2023-05-06T04:41:41.786Z,51.71
2023-05-06T04:44:10.250Z,51.57
2023-05-06T04:46:37.280Z,51.70
2023-05-06T04:49:04.209Z,51.96
2023-05-06T04:51:31.807Z,52.14
2023-05-06T04:54:00.173Z,52.04
2023-05-06T04:56:27.678Z,52.26
2023-05-06T04:58:54.857Z,52.30
2023-05-06T05:01:22.262Z,52.34
2023-05-06T05:03:50.526Z,52.47
2023-05-06T05:06:20.129Z,52.82
2023-05-06T05:08:47.921Z,52.77
2023-05-06T05:11:15.496Z,52.98
2023-05-06T05:13:43.161Z,53.07
2023-05-06T05:16:10.032Z,53.35
2023-05-06T05:18:40.693Z,53.51
2023-05-06T05:21:16.021Z,53.37
2023-05-06T05:23:43.019Z,53.57
2023-05-06T05:26:10.370Z,53.46
2023-05-06T05:28:38.425Z,53.55
2023-05-06T05:31:06.334Z,53.73
2023-05-06T05:33:36.270Z,53.73
2023-05-06T05:36:06.515Z,53.78
2023-05-06T05:38:34.373Z,54.14
2023-05-06T05:41:04.402Z,54.08
2023-05-06T05:43:31.439Z,54.30
2023-05-06T05:46:00.354Z,54.42
2023-05-06T05:48:27.417Z,54.44
2023-05-06T05:50:55.091Z,54.54
2023-05-06T05:53:24.184Z,54.46
2023-05-06T05:55:51.274Z,54.39
2023-05-06T05:58:18.962Z,54.22
2023-05-06T06:00:45.930Z,54.19
2023-05-06T06:03:18.238Z,53.93
2023-05-06T06:05:45.496Z,53.62
2023-05-06T06:08:13.296Z,53.78
2023-05-06T06:10:42.008Z,53.90
2023-05-06T06:13:14.720Z,53.79
2023-05-06T06:15:44.106Z,53.74
2023-05-06T06:18:11.668Z,53.69
2023-05-06T06:20:39.707Z,53.74
2023-05-06T06:23:11.360Z,53.92
2023-05-06T06:25:38.537Z,53.48
2023-05-06T06:28:08.025Z,53.49
2023-05-06T06:30:35.340Z,53.17
2023-05-06T06:33:02.493Z,53.15
2023-05-06T06:35:30.231Z,53.02
2023-05-06T06:38:04.677Z,52.86
2023-05-06T06:40:31.735Z,52.73
2023-05-06T06:42:59.031Z,52.98
2023-05-06T06:45:48.366Z,52.72
2023-05-06T06:48:16.502Z,52.72
2023-05-06T06:50:43.379Z,52.63
2023-05-06T06:53:12.787Z,52.57
2023-05-06T06:55:55.839Z,52.53
2023-05-06T06:58:23.119Z,52.43
2023-05-06T07:00:50.416Z,52.57
2023-05-06T07:03:19.317Z,52.31
2023-05-06T07:05:47.085Z,52.17
2023-05-06T07:08:17.471Z,51.93
2023-05-06T07:10:44.850Z,51.95
2023-05-06T07:13:12.131Z,51.73
2023-05-06T07:15:39.304Z,51.56
2023-05-06T07:18:06.517Z,51.07
2023-05-06T07:20:34.023Z,51.01
2023-05-06T07:23:01.132Z,50.70
2023-05-06T07:25:28.162Z,50.69
2023-05-06T07:27:55.116Z,50.46
2023-05-06T07:30:23.277Z,50.07
2023-05-06T07:32:51.457Z,49.61
2023-05-06T07:35:19.125Z,49.02
2023-05-06T07:37:46.953Z,49.29
2023-05-06T07:40:13.903Z,48.94
2023-05-06T07:42:43.003Z,47.98
2023-05-06T07:45:11.025Z,48.00
2023-05-06T07:47:38.472Z,48.33
2023-05-06T07:50:06.871Z,48.48
2023-05-06T07:52:34.583Z,48.29
2023-05-06T07:55:02.702Z,48.62
2023-05-06T07:57:30.001Z,48.13
2023-05-06T07:59:58.476Z,48.11
2023-05-06T08:02:25.525Z,47.48
2023-05-06T08:04:52.982Z,47.19
2023-05-06T08:07:19.994Z,47.03
2023-05-06T08:09:46.978Z,46.29
2023-05-06T08:12:15.702Z,46.52
2023-05-06T08:14:42.487Z,46.19
2023-05-06T08:17:09.268Z,46.48
2023-05-06T08:19:36.132Z,46.50
2023-05-06T08:22:02.963Z,46.12
2023-05-06T08:24:29.750Z,45.79
2023-05-06T08:26:56.550Z,46.14
2023-05-06T08:29:23.651Z,46.15
2023-05-06T08:31:50.678Z,46.01
2023-05-06T08:34:20.103Z,45.91
2023-05-06T08:36:48.430Z,45.57
2023-05-06T08:39:15.233Z,45.29
2023-05-06T08:41:48.337Z,44.93
2023-05-06T08:44:18.977Z,44.83
2023-05-06T08:46:50.036Z,44.69
2023-05-06T08:49:17.364Z,45.05
2023-05-06T08:51:44.834Z,45.34
2023-05-06T08:54:12.907Z,44.60
2023-05-06T08:56:45.813Z,44.58
2023-05-06T08:59:13.897Z,44.00
2023-05-06T09:01:41.562Z,43.75
2023-05-06T09:04:10.326Z,42.73
2023-05-06T09:06:37.357Z,42.58
2023-05-06T09:09:04.439Z,42.42
2023-05-06T09:11:31.743Z,42.04
2023-05-06T09:14:17.968Z,42.15
2023-05-06T09:16:49.324Z,41.74
2023-05-06T09:19:18.744Z,41.56
2023-05-06T09:21:48.256Z,41.61
2023-05-06T09:24:16.729Z,41.27
2023-05-06T09:26:46.092Z,40.94
2023-05-06T09:29:14.049Z,41.55
2023-05-06T09:31:43.773Z,41.27
2023-05-06T09:34:11.856Z,41.33
2023-05-06T09:36:39.126Z,41.50
2023-05-06T09:39:07.661Z,41.62
2023-05-06T09:41:36.164Z,42.01
2023-05-06T09:44:04.508Z,41.46
2023-05-06T09:46:32.131Z,41.13
2023-05-06T09:48:59.567Z,40.55
2023-05-06T09:51:30.836Z,40.21
2023-05-06T09:53:59.188Z,40.21
2023-05-06T09:56:26.367Z,40.13
2023-05-06T09:58:55.537Z,39.78
2023-05-06T10:01:35.418Z,40.22
2023-05-06T10:04:10.194Z,39.65
2023-05-06T10:06:40.962Z,39.80
2023-05-06T10:09:09.184Z,40.19
2023-05-06T10:11:36.772Z,39.88
2023-05-06T10:14:05.225Z,39.31
2023-05-06T10:16:36.081Z,39.00
2023-05-06T10:19:04.963Z,38.41
2023-05-06T10:21:36.365Z,38.13
2023-05-06T10:24:11.272Z,38.12
2023-05-06T10:26:39.268Z,37.77
2023-05-06T10:29:10.743Z,37.75
2023-05-06T10:31:57.456Z,38.19
2023-05-06T10:34:31.568Z,37.76
2023-05-06T10:37:00.172Z,38.08
2023-05-06T10:39:27.831Z,37.31
2023-05-06T10:41:55.105Z,36.86
2023-05-06T10:45:09.541Z,37.24
2023-05-06T10:48:03.714Z,37.46
2023-05-06T10:50:30.680Z,37.51
2023-05-06T10:52:59.160Z,37.08
2023-05-06T10:55:38.578Z,37.08
2023-05-06T10:58:11.781Z,36.91
2023-05-06T11:00:38.569Z,37.00
2023-05-06T11:03:10.676Z,36.99
2023-05-06T11:05:51.901Z,36.24
2023-05-06T11:08:24.736Z,36.02
2023-05-06T11:11:25.351Z,35.27
2023-05-06T11:13:53.413Z,35.18
2023-05-06T11:16:49.992Z,35.12
2023-05-06T11:19:23.400Z,34.24
2023-05-06T11:21:52.077Z,34.96
2023-05-06T11:24:29.667Z,33.81
2023-05-06T11:26:59.131Z,33.76
2023-05-06T11:29:27.005Z,34.32
2023-05-06T11:31:54.359Z,34.02
2023-05-06T11:34:30.302Z,33.85
2023-05-06T11:37:02.116Z,34.61
2023-05-06T11:39:39.970Z,33.59
2023-05-06T11:42:08.926Z,34.07
2023-05-06T11:44:38.146Z,33.19
2023-05-06T11:47:07.635Z,33.59
2023-05-06T11:49:42.120Z,32.91
2023-05-06T11:52:13.284Z,32.40
2023-05-06T11:54:42.298Z,32.62
2023-05-06T11:57:09.958Z,32.26
2023-05-06T11:59:39.603Z,31.73
2023-05-06T12:02:08.953Z,33.26
2023-05-06T12:04:50.179Z,32.56
2023-05-06T12:07:17.559Z,32.71
2023-05-06T12:09:47.957Z,32.32
2023-05-06T12:12:22.386Z,32.98
2023-05-06T12:14:50.630Z,32.26
2023-05-06T12:17:17.799Z,32.20
2023-05-06T12:19:46.612Z,31.54
2023-05-06T12:22:22.443Z,31.48
2023-05-06T12:24:50.428Z,31.67
2023-05-06T12:27:36.612Z,31.61
2023-05-06T12:30:04.806Z,31.39
2023-05-06T12:32:32.244Z,31.42
2023-05-06T12:35:00.707Z,31.23
2023-05-06T12:37:30.520Z,30.81
2023-05-06T12:39:59.324Z,31.54
2023-05-06T12:42:27.093Z,31.67
2023-05-06T12:44:54.464Z,31.92
2023-05-06T12:47:25.318Z,31.68
2023-05-06T12:50:00.861Z,31.17
2023-05-06T12:52:30.287Z,31.16
2023-05-06T12:54:57.687Z,31.43
2023-05-06T12:57:24.542Z,31.60
2023-05-06T12:59:51.369Z,31.74
2023-05-06T13:02:18.645Z,31.34
2023-05-06T13:04:46.866Z,31.33
2023-05-06T13:07:13.930Z,30.78
2023-05-06T13:09:40.843Z,30.84
2023-05-06T13:12:08.480Z,31.28
2023-05-06T13:14:36.923Z,30.94
2023-05-06T13:17:06.720Z,30.39
2023-05-06T13:19:33.920Z,29.81
2023-05-06T13:22:02.124Z,30.06
2023-05-06T13:24:29.757Z,29.48
2023-05-06T13:26:57.027Z,29.83
2023-05-06T13:29:24.512Z,30.61
2023-05-06T13:31:52.068Z,30.21
2023-05-06T13:34:19.291Z,30.01
2023-05-06T13:36:47.721Z,29.10
2023-05-06T13:39:18.671Z,28.34
2023-05-06T13:41:52.588Z,28.25
2023-05-06T13:44:21.241Z,28.08
2023-05-06T13:46:49.556Z,28.12
2023-05-06T13:49:19.061Z,28.08
2023-05-06T13:51:46.604Z,28.17
2023-05-06T13:54:16.620Z,28.35
2023-05-06T13:56:43.468Z,28.12
2023-05-06T13:59:11.855Z,28.43
2023-05-06T14:01:39.109Z,28.49
2023-05-06T14:04:06.442Z,28.52
2023-05-06T14:06:33.468Z,28.43
2023-05-06T14:09:04.728Z,28.75
2023-05-06T14:11:32.074Z,28.65
2023-05-06T14:14:02.809Z,28.58
2023-05-06T14:16:29.870Z,28.25
2023-05-06T14:18:56.713Z,28.35
2023-05-06T14:21:23.624Z,28.07
2023-05-06T14:23:50.642Z,27.75
2023-05-06T14:26:17.661Z,28.27
2023-05-06T14:28:44.512Z,28.31
2023-05-06T14:31:11.625Z,27.78
2023-05-06T14:33:38.866Z,27.44
2023-05-06T14:36:06.332Z,27.68
2023-05-06T14:38:33.135Z,27.88
2023-05-06T14:41:00.452Z,27.54
2023-05-06T14:43:30.045Z,27.49
2023-05-06T14:45:56.874Z,28.58
2023-05-06T14:48:25.467Z,27.58
2023-05-06T14:50:53.186Z,27.39
2023-05-06T14:53:20.118Z,27.55
2023-05-06T14:55:48.750Z,27.16
2023-05-06T14:58:15.648Z,27.18
2023-05-06T15:00:42.456Z,26.87
2023-05-06T15:03:09.609Z,26.96
2023-05-06T15:05:37.228Z,27.01
2023-05-06T15:08:11.456Z,27.31
2023-05-06T15:10:39.408Z,27.67
2023-05-06T15:13:07.010Z,27.57
2023-05-06T15:15:34.177Z,27.29
2023-05-06T15:18:07.373Z,27.33
2023-05-06T15:20:36.354Z,26.98
2023-05-06T15:23:03.283Z,26.93
2023-05-06T15:25:35.643Z,26.72
2023-05-06T15:28:05.127Z,26.86
2023-05-06T15:30:32.056Z,26.72
2023-05-06T15:32:59.025Z,27.27
2023-05-06T15:35:29.655Z,27.15
2023-05-06T15:38:00.451Z,26.55
2023-05-06T15:40:27.499Z,26.64
2023-05-06T15:42:54.893Z,26.51
2023-05-06T15:45:25.711Z,26.53
2023-05-06T15:47:54.442Z,26.31
2023-05-06T15:50:32.528Z,25.77
2023-05-06T15:53:01.695Z,26.08
2023-05-06T15:55:35.111Z,25.94
2023-05-06T15:58:08.601Z,26.89
2023-05-06T16:00:35.698Z,26.77
2023-05-06T16:03:02.790Z,26.32
2023-05-06T16:05:30.006Z,26.41
2023-05-06T16:07:56.921Z,26.25
2023-05-06T16:10:23.843Z,26.37
2023-05-06T16:12:50.985Z,26.21
2023-05-06T16:15:18.389Z,26.40
2023-05-06T16:17:45.601Z,26.23
2023-05-06T16:20:14.525Z,26.19
2023-05-06T16:22:41.865Z,26.23
2023-05-06T16:25:08.842Z,26.07
2023-05-06T16:27:35.669Z,25.78
2023-05-06T16:30:02.520Z,25.27
2023-05-06T16:32:29.449Z,25.34
2023-05-06T16:34:56.292Z,25.27
2023-05-06T16:37:23.159Z,25.33
2023-05-06T16:39:49.983Z,25.28
2023-05-06T16:42:16.814Z,25.37
2023-05-06T16:44:43.616Z,25.54
2023-05-06T16:47:10.560Z,25.74
2023-05-06T16:49:37.706Z,26.12
2023-05-06T16:52:05.357Z,25.90
2023-05-06T16:54:32.365Z,26.17
2023-05-06T16:57:00.404Z,26.01
2023-05-06T16:59:27.410Z,26.28
2023-05-06T17:01:57.358Z,26.54
2023-05-06T17:04:27.540Z,26.92
2023-05-06T17:06:57.559Z,27.06
2023-05-06T17:09:24.747Z,27.46
2023-05-06T17:11:51.565Z,27.94
2023-05-06T17:14:19.768Z,28.08
2023-05-06T17:16:47.232Z,28.57
2023-05-06T17:19:14.648Z,28.04
2023-05-06T17:21:41.658Z,28.83
2023-05-06T17:24:08.841Z,28.44
2023-05-06T17:26:35.939Z,29.19
2023-05-06T17:29:02.868Z,28.89
2023-05-06T17:31:29.757Z,29.44
2023-05-06T17:33:57.466Z,29.37
2023-05-06T17:36:24.305Z,29.15
2023-05-06T17:39:05.405Z,29.39
2023-05-06T17:41:33.398Z,29.09
2023-05-06T17:44:00.238Z,29.55
2023-05-06T17:46:27.281Z,29.67
2023-05-06T17:48:57.344Z,29.79
2023-05-06T17:51:30.951Z,29.42
2023-05-06T17:54:00.649Z,29.52
2023-05-06T17:56:27.575Z,29.98
2023-05-06T17:58:54.516Z,29.66
2023-05-06T18:01:21.397Z,29.82
2023-05-06T18:03:48.283Z,30.01
2023-05-06T18:06:19.265Z,30.57
2023-05-06T18:08:46.714Z,30.67
2023-05-06T18:11:14.592Z,30.86
2023-05-06T18:16:23.904Z,31.16
2023-05-06T18:19:00.913Z,31.32
2023-05-06T18:21:30.843Z,31.37
2023-05-06T18:24:10.253Z,31.35
2023-05-06T18:26:45.224Z,31.76
2023-05-06T18:29:12.926Z,32.19
2023-05-06T18:31:39.840Z,32.47
2023-05-06T18:34:06.711Z,32.47
2023-05-06T18:36:35.092Z,32.46
2023-05-06T18:39:03.353Z,32.87
2023-05-06T18:41:30.712Z,33.56
2023-05-06T18:43:57.515Z,33.50
2023-05-06T18:46:24.574Z,33.74
2023-05-06T18:48:51.512Z,33.72
2023-05-06T18:51:18.366Z,33.99
2023-05-06T18:53:45.517Z,34.23
2023-05-06T18:56:14.059Z,34.58
2023-05-06T18:58:43.394Z,34.55
2023-05-06T19:01:18.029Z,34.72
2023-05-06T19:03:53.581Z,34.83
2023-05-06T19:06:22.654Z,34.72
2023-05-06T19:08:50.763Z,35.10
2023-05-06T19:11:18.916Z,34.71
2023-05-06T19:13:46.085Z,35.00
2023-05-06T19:16:13.803Z,35.15
2023-05-06T19:18:41.495Z,35.61
2023-05-06T19:21:15.560Z,35.53
2023-05-06T19:23:42.929Z,35.36
2023-05-06T19:26:11.327Z,35.51
2023-05-06T19:28:40.323Z,35.79
2023-05-06T19:31:11.115Z,35.50
2023-05-06T19:33:39.200Z,35.78
2023-05-06T19:36:06.510Z,36.25
2023-05-06T19:38:33.986Z,36.41
2023-05-06T19:41:01.056Z,36.96
2023-05-06T19:43:27.961Z,37.23
2023-05-06T19:45:54.862Z,37.30
2023-05-06T19:48:23.634Z,37.76
2023-05-06T19:50:53.709Z,37.90
2023-05-06T19:53:22.485Z,37.32
2023-05-06T19:55:49.308Z,37.49
2023-05-06T19:58:17.152Z,37.79
2023-05-06T20:00:46.976Z,38.01
2023-05-06T20:03:14.075Z,37.97
2023-05-06T20:05:41.900Z,37.84
2023-05-06T20:08:11.381Z,38.19
2023-05-06T20:10:38.489Z,37.83
2023-05-06T20:13:06.685Z,38.35
2023-05-06T20:15:35.775Z,38.54
2023-05-06T20:18:02.901Z,38.20
2023-05-06T20:20:34.638Z,38.82
2023-05-06T20:23:02.811Z,38.64
2023-05-06T20:25:30.166Z,38.90
2023-05-06T20:27:59.786Z,39.08
2023-05-06T20:30:26.839Z,38.94
2023-05-06T20:32:53.918Z,39.35
2023-05-06T20:35:21.921Z,39.43
2023-05-06T20:37:49.175Z,39.74
2023-05-06T20:40:16.150Z,39.28
2023-05-06T20:42:42.972Z,39.71
2023-05-06T20:45:10.505Z,39.92
2023-05-06T20:47:37.853Z,39.88
2023-05-06T20:50:05.778Z,39.95
2023-05-06T20:52:33.878Z,40.24
2023-05-06T20:55:01.048Z,39.96
2023-05-06T20:57:28.340Z,40.47
2023-05-06T20:59:56.069Z,40.20
2023-05-06T21:02:22.932Z,40.59
2023-05-06T21:04:49.858Z,40.33
2023-05-06T21:07:17.767Z,40.67
2023-05-06T21:09:44.556Z,40.71
2023-05-06T21:12:11.380Z,40.95
2023-05-06T21:14:41.123Z,41.09
2023-05-06T21:17:08.580Z,41.17
2023-05-06T21:19:38.405Z,41.09
2023-05-06T21:22:10.377Z,41.51
2023-05-06T21:24:38.431Z,41.55
2023-05-06T21:27:09.286Z,41.48
2023-05-06T21:29:37.169Z,41.48
2023-05-06T21:32:08.277Z,41.52
2023-05-06T21:34:35.437Z,41.83
2023-05-06T21:37:02.278Z,42.16
2023-05-06T21:39:29.770Z,41.98
2023-05-06T21:41:57.802Z,41.99
2023-05-06T21:44:25.358Z,42.27
2023-05-06T21:46:52.905Z,42.35
2023-05-06T21:49:22.264Z,42.49
2023-05-06T21:51:49.482Z,42.35
2023-05-06T21:54:20.821Z,42.78
2023-05-06T21:56:48.165Z,42.55
2023-05-06T21:59:16.400Z,42.83
2023-05-06T22:01:43.947Z,42.85
2023-05-06T22:04:15.283Z,42.88
2023-05-06T22:06:42.405Z,43.17
2023-05-06T22:09:09.953Z,43.27
2023-05-06T22:11:38.724Z,43.08
2023-05-06T22:14:06.470Z,43.06
2023-05-06T22:16:35.721Z,43.24
2023-05-06T22:19:04.802Z,43.22
2023-05-06T22:21:33.406Z,43.66
2023-05-06T22:24:01.100Z,43.68
2023-05-06T22:26:28.863Z,43.70
2023-05-06T22:28:56.780Z,43.54
2023-05-06T22:31:25.236Z,43.64
2023-05-06T22:33:59.711Z,43.95
2023-05-06T22:36:29.361Z,43.67
2023-05-06T22:38:57.544Z,43.51
2023-05-06T22:41:24.875Z,43.64
2023-05-06T22:43:58.210Z,43.83
2023-05-06T22:46:25.612Z,44.01
2023-05-06T22:48:54.204Z,44.00
2023-05-06T22:51:21.579Z,43.92
2023-05-06T22:53:49.179Z,44.00
2023-05-06T22:56:17.241Z,44.07
2023-05-06T22:58:44.467Z,44.31
2023-05-06T23:01:12.587Z,44.36
2023-05-06T23:03:40.617Z,44.39
2023-05-06T23:06:07.654Z,44.41
2023-05-06T23:08:35.166Z,44.50
2023-05-06T23:11:02.371Z,44.67
2023-05-06T23:13:31.433Z,44.62
2023-05-06T23:15:58.871Z,44.66
2023-05-06T23:18:25.712Z,44.80
2023-05-06T23:20:56.205Z,44.85
2023-05-06T23:23:23.304Z,44.75
2023-05-06T23:25:57.028Z,44.86
2023-05-06T23:28:24.765Z,44.83
2023-05-06T23:30:52.542Z,44.81
2023-05-06T23:33:20.313Z,44.91
2023-05-06T23:35:47.371Z,44.90
2023-05-06T23:38:15.230Z,44.97
2023-05-06T23:40:42.492Z,44.97
2023-05-06T23:43:11.951Z,44.88
2023-05-06T23:45:40.094Z,44.92
2023-05-06T23:48:07.517Z,44.99
2023-05-06T23:50:34.866Z,45.14
2023-05-06T23:53:02.501Z,45.17
2023-05-06T23:55:29.517Z,45.03
2023-05-06T23:57:59.542Z,45.22
